Terminal Aerodrome Forecast
Issued by NWS Paducah, KY

Home | Current Version | Previous Version | Text Only | Print | Product List | Glossary On
Versions: 1 2 3 4 5 6 7 8 9 10 11 12 13 14 15 16
454
FTUS43 KPAH 052330
TAFEVV
TAF
KEVV 052330Z 0600/0624 VRB03KT P6SM SCT250
     FM061100 23004KT P6SM SCT080 BKN250
     FM061800 23006KT P6SM SCT250=

USA.gov is the U.S. government's official web portal to all federal, state and local government web resources and services.